Time;durP1;ratioP1;P1;durP2;ratioP2;P2;SDS_P1;SDS_P2;PMS_P1;PMS_P2;Temp;Humidity;BMP_temperature;BMP_pressure;BME280_temperature;BME280_humidity;BME280_pressure;Samples;Min_cycle;Max_cycle;Signal;HPM_P1;HPM_P2
2022/06/24 00:03:57;;;;;;;14.25;9.30;;;20.50;99.90;;;;;;7338895;32;20459;-63
2022/06/24 00:07:59;;;;;;;12.98;8.38;;;20.40;99.90;;;;;;7342575;32;20145;-62
2022/06/24 00:12:09;;;;;;;14.82;8.95;;;20.50;99.90;;;;;;7337446;32;20546;-63
2022/06/24 00:16:11;;;;;;;16.92;9.20;;;20.40;99.90;;;;;;7344457;32;20233;-62
2022/06/24 00:20:18;;;;;;;14.15;8.57;;;20.40;99.90;;;;;;7336384;32;20227;-62
2022/06/24 00:24:23;;;;;;;15.07;9.73;;;20.30;99.90;;;;;;7338862;32;20202;-63
2022/06/24 00:28:25;;;;;;;16.52;9.95;;;20.30;99.90;;;;;;7333949;32;20178;-62
2022/06/24 00:32:32;;;;;;;21.45;11.25;;;20.40;99.90;;;;;;7339815;32;21492;-61
2022/06/24 00:36:35;;;;;;;18.48;11.15;;;20.50;99.90;;;;;;7342345;32;20099;-61
2022/06/24 00:40:37;;;;;;;13.80;10.52;;;20.50;99.90;;;;;;7342741;32;20706;-63
2022/06/24 00:44:47;;;;;;;20.85;12.85;;;20.60;99.90;;;;;;7341606;32;20219;-63
2022/06/24 00:48:54;;;;;;;24.33;14.68;;;20.50;99.90;;;;;;7341270;32;20120;-60
2022/06/24 00:52:58;;;;;;;25.00;15.93;;;20.40;99.90;;;;;;7339928;32;20118;-62
2022/06/24 00:57:00;;;;;;;28.90;15.43;;;20.20;99.90;;;;;;7344746;32;20141;-63
2022/06/24 01:01:02;;;;;;;25.95;14.95;;;20.10;99.90;;;;;;7335074;32;20636;-62
2022/06/24 01:05:08;;;;;;;25.17;14.43;;;20.10;99.90;;;;;;7337919;32;20103;-61
2022/06/24 01:09:11;;;;;;;24.65;11.85;;;20.00;99.90;;;;;;7336880;32;20111;-62
2022/06/24 01:13:13;;;;;;;17.20;12.70;;;19.90;99.90;;;;;;7340474;32;20104;-61
2022/06/24 01:17:15;;;;;;;23.17;12.98;;;19.90;99.90;;;;;;7338606;32;20640;-61
2022/06/24 01:21:42;;;;;;;16.20;12.63;;;19.90;99.90;;;;;;7343108;32;20198;-63
2022/06/24 01:25:44;;;;;;;18.48;12.13;;;19.80;99.90;;;;;;7343897;32;20126;-63
2022/06/24 01:29:46;;;;;;;16.85;10.77;;;19.70;99.90;;;;;;7346404;32;20575;-63
2022/06/24 01:33:48;;;;;;;19.87;10.32;;;19.80;99.90;;;;;;7347114;32;20117;-63
2022/06/24 01:37:49;;;;;;;17.10;9.15;;;19.70;99.90;;;;;;7346701;32;20130;-61
2022/06/24 01:41:52;;;;;;;12.60;8.85;;;19.70;99.90;;;;;;7344823;32;20118;-62
2022/06/24 01:45:54;;;;;;;12.98;8.60;;;19.60;99.90;;;;;;7344771;32;20128;-63
2022/06/24 01:49:56;;;;;;;19.08;9.00;;;19.60;99.90;;;;;;7347239;32;20102;-63
2022/06/24 01:53:57;;;;;;;15.30;8.88;;;19.50;99.90;;;;;;7345571;32;20557;-63
2022/06/24 01:57:59;;;;;;;14.27;9.70;;;19.50;99.90;;;;;;7343541;32;20142;-63
2022/06/24 02:02:01;;;;;;;14.18;8.93;;;19.50;99.90;;;;;;7346184;32;20096;-63
2022/06/24 02:06:05;;;;;;;13.18;8.98;;;19.40;99.90;;;;;;7338001;32;20305;-63
2022/06/24 02:14:28;;;;;;;12.10;8.60;;;19.40;99.90;;;;;;7339978;32;20126;-62
2022/06/24 02:18:31;;;;;;;13.52;9.07;;;19.40;99.90;;;;;;7343873;32;20166;-62
2022/06/24 02:22:33;;;;;;;17.00;8.77;;;19.40;99.90;;;;;;7345414;32;20484;-62
2022/06/24 02:26:35;;;;;;;10.40;8.43;;;19.40;99.90;;;;;;7344518;32;20783;-63
2022/06/24 02:30:40;;;;;;;10.80;7.90;;;19.40;99.90;;;;;;7342668;32;20699;-63
2022/06/24 02:34:42;;;;;;;11.40;7.28;;;19.40;99.90;;;;;;7345398;32;20217;-62
2022/06/24 02:38:44;;;;;;;11.98;7.30;;;19.40;99.90;;;;;;7345803;32;20786;-63
2022/06/24 02:42:46;;;;;;;10.43;5.53;;;19.30;99.90;;;;;;7345908;32;20107;-63
2022/06/24 02:46:48;;;;;;;7.47;5.10;;;19.30;99.90;;;;;;7346345;32;20099;-63
2022/06/24 02:50:54;;;;;;;7.68;5.10;;;19.30;99.90;;;;;;7339805;32;20141;-64
2022/06/24 02:54:56;;;;;;;9.97;5.20;;;19.30;99.90;;;;;;7339371;32;20469;-63
2022/06/24 02:58:58;;;;;;;8.35;5.37;;;19.30;99.90;;;;;;7342082;32;20445;-62
2022/06/24 03:03:00;;;;;;;8.40;5.47;;;19.20;99.90;;;;;;7348444;32;20111;-63
2022/06/24 03:07:02;;;;;;;7.62;5.95;;;19.20;99.90;;;;;;7345094;32;20180;-63
2022/06/24 03:11:03;;;;;;;10.10;6.05;;;19.10;99.90;;;;;;7338792;32;20137;-62
2022/06/24 03:15:06;;;;;;;9.20;6.10;;;19.10;99.90;;;;;;7338882;32;20119;-61
2022/06/24 03:19:07;;;;;;;6.93;5.50;;;19.00;99.90;;;;;;7345760;32;20569;-62
2022/06/24 03:23:10;;;;;;;7.70;6.20;;;19.00;99.90;;;;;;7345737;32;20170;-62
2022/06/24 03:27:12;;;;;;;9.18;6.85;;;19.10;99.90;;;;;;7342125;32;20276;-62
2022/06/24 03:31:14;;;;;;;10.60;7.28;;;19.00;99.90;;;;;;7344098;32;20514;-63
2022/06/24 03:35:15;;;;;;;12.95;8.48;;;19.00;99.90;;;;;;7343754;32;20265;-63
2022/06/24 03:39:17;;;;;;;10.02;8.40;;;19.00;99.90;;;;;;7342589;32;20125;-63
2022/06/24 03:43:19;;;;;;;11.82;9.00;;;19.00;99.90;;;;;;7344132;32;20122;-62
2022/06/24 03:47:21;;;;;;;9.50;8.50;;;19.00;99.90;;;;;;7343594;32;20130;-62
2022/06/24 03:51:23;;;;;;;11.98;9.70;;;19.00;99.90;;;;;;7339014;32;20878;-62
2022/06/24 03:55:25;;;;;;;12.90;10.15;;;19.00;99.90;;;;;;7340742;32;20179;-62
2022/06/24 03:59:28;;;;;;;12.15;10.20;;;18.90;99.90;;;;;;7341007;32;20182;-62
2022/06/24 04:03:30;;;;;;;18.40;12.30;;;18.90;99.90;;;;;;7337646;32;20657;-62
2022/06/24 04:07:32;;;;;;;15.32;11.20;;;18.90;99.90;;;;;;7345693;32;20904;-63
2022/06/24 04:11:33;;;;;;;13.25;11.18;;;18.90;99.90;;;;;;7339820;32;20802;-62
2022/06/24 04:15:35;;;;;;;13.20;11.00;;;18.90;99.90;;;;;;7340763;32;20130;-61
2022/06/24 04:19:37;;;;;;;12.37;11.15;;;18.90;99.90;;;;;;7343987;32;20118;-62
2022/06/24 04:23:39;;;;;;;15.68;13.35;;;18.90;99.90;;;;;;7344869;32;20099;-62
2022/06/24 04:27:41;;;;;;;16.15;13.98;;;19.00;99.90;;;;;;7334685;32;20748;-62
2022/06/24 04:31:42;;;;;;;14.65;12.55;;;19.00;99.90;;;;;;7337427;32;20118;-62
2022/06/24 04:35:44;;;;;;;16.73;13.07;;;19.00;99.90;;;;;;7344593;32;20425;-61
2022/06/24 04:39:46;;;;;;;16.17;13.13;;;19.00;99.90;;;;;;7336226;32;20107;-62
2022/06/24 04:43:48;;;;;;;15.55;12.57;;;19.00;99.90;;;;;;7342932;32;20125;-62
2022/06/24 04:47:49;;;;;;;15.43;13.82;;;19.00;99.90;;;;;;7336006;32;20194;-64
2022/06/24 04:51:51;;;;;;;17.33;14.87;;;19.00;99.90;;;;;;7339481;32;20096;-63
2022/06/24 04:55:53;;;;;;;17.20;15.20;;;19.00;99.90;;;;;;7341157;32;20122;-63
2022/06/24 04:59:54;;;;;;;15.88;14.30;;;19.00;99.90;;;;;;7339419;32;20153;-63
2022/06/24 05:03:58;;;;;;;19.37;17.12;;;19.00;99.90;;;;;;7337422;32;20103;-63
2022/06/24 05:08:00;;;;;;;21.80;18.27;;;19.10;99.90;;;;;;7340877;32;20547;-63
2022/06/24 05:12:02;;;;;;;22.05;19.95;;;19.10;99.90;;;;;;7343426;32;20096;-63
2022/06/24 05:16:04;;;;;;;23.62;20.80;;;19.10;99.90;;;;;;7343604;32;20130;-63
2022/06/24 05:20:25;;;;;;;27.37;21.67;;;19.10;99.90;;;;;;7342736;32;20100;-62
2022/06/24 05:24:27;;;;;;;23.45;20.95;;;19.10;99.90;;;;;;7341901;32;20299;-61
2022/06/24 05:28:29;;;;;;;24.33;20.17;;;19.10;99.90;;;;;;7343658;32;20150;-64
2022/06/24 05:32:31;;;;;;;23.10;20.48;;;19.10;99.90;;;;;;7334508;32;20118;-64
2022/06/24 05:36:34;;;;;;;25.67;20.48;;;19.10;99.90;;;;;;7342127;32;20321;-64
2022/06/24 05:40:36;;;;;;;21.83;19.52;;;19.10;99.90;;;;;;7344477;32;20473;-65
2022/06/24 05:44:37;;;;;;;23.67;19.73;;;19.10;99.90;;;;;;7342664;32;20228;-64
2022/06/24 05:48:40;;;;;;;22.58;18.73;;;19.10;99.90;;;;;;7325587;32;20129;-65
2022/06/24 05:57:02;;;;;;;23.98;20.95;;;19.10;99.90;;;;;;7341767;32;20503;-63
2022/06/24 06:01:10;;;;;;;22.45;20.02;;;19.10;99.90;;;;;;7345381;32;20135;-63
2022/06/24 06:05:12;;;;;;;21.85;19.55;;;19.10;99.90;;;;;;7335847;32;20362;-64
2022/06/24 06:09:14;;;;;;;20.42;15.85;;;19.10;99.90;;;;;;7341055;32;20194;-65
2022/06/24 06:13:16;;;;;;;15.88;12.80;;;19.10;99.90;;;;;;7339901;32;20103;-65
2022/06/24 06:17:18;;;;;;;13.32;9.85;;;19.00;99.90;;;;;;7340262;32;20206;-65
2022/06/24 06:21:20;;;;;;;15.07;10.45;;;18.90;99.90;;;;;;7334601;32;20186;-65
2022/06/24 06:25:22;;;;;;;14.48;11.43;;;18.90;99.90;;;;;;7343556;32;20212;-65
2022/06/24 06:29:25;;;;;;;12.23;10.25;;;18.80;99.90;;;;;;7341167;32;20178;-65
2022/06/24 06:33:27;;;;;;;10.95;9.82;;;18.80;99.90;;;;;;7340994;32;20127;-63
2022/06/24 06:37:29;;;;;;;10.45;8.90;;;18.70;99.90;;;;;;7340506;32;20260;-66
2022/06/24 06:41:30;;;;;;;9.32;6.72;;;18.70;99.90;;;;;;7343318;32;20103;-65
2022/06/24 06:45:33;;;;;;;9.43;6.32;;;18.70;99.90;;;;;;7341374;32;20644;-66
2022/06/24 06:49:35;;;;;;;8.48;7.43;;;18.70;99.90;;;;;;7340193;32;20098;-66
2022/06/24 06:53:37;;;;;;;9.27;7.35;;;18.80;99.90;;;;;;7341197;32;20107;-64
2022/06/24 06:57:39;;;;;;;12.00;7.85;;;18.80;99.90;;;;;;7336257;32;20157;-64
2022/06/24 07:01:40;;;;;;;9.80;5.45;;;18.90;99.90;;;;;;7335960;32;20142;-63
2022/06/24 07:05:43;;;;;;;9.32;4.93;;;18.80;99.90;;;;;;7340855;32;20127;-64
2022/06/24 07:09:45;;;;;;;7.78;3.65;;;18.70;99.90;;;;;;7338927;32;20648;-64
2022/06/24 07:13:47;;;;;;;5.35;2.25;;;18.70;99.90;;;;;;7339391;32;20118;-65
2022/06/24 07:17:49;;;;;;;6.35;2.20;;;18.40;99.90;;;;;;7331346;32;20253;-62
2022/06/24 07:21:50;;;;;;;5.57;1.80;;;18.20;99.90;;;;;;7335641;32;20244;-64
2022/06/24 07:25:56;;;;;;;5.53;1.70;;;18.10;99.90;;;;;;7335007;32;20563;-63
2022/06/24 07:29:58;;;;;;;2.72;1.17;;;18.00;99.90;;;;;;7343208;32;20471;-64
2022/06/24 07:33:59;;;;;;;4.60;1.50;;;17.90;99.90;;;;;;7339387;32;20236;-65
2022/06/24 07:38:01;;;;;;;5.87;1.85;;;17.80;99.90;;;;;;7336243;32;20145;-64
2022/06/24 07:42:03;;;;;;;5.45;1.48;;;17.70;99.90;;;;;;7341312;32;20496;-64
2022/06/24 07:46:08;;;;;;;5.57;1.42;;;17.60;99.90;;;;;;7332868;32;20487;-64
2022/06/24 07:50:10;;;;;;;10.18;2.28;;;17.60;99.90;;;;;;7335489;32;20179;-64
2022/06/24 07:54:12;;;;;;;8.07;2.33;;;17.50;99.90;;;;;;7341267;32;20107;-65
2022/06/24 07:58:14;;;;;;;5.68;2.03;;;17.50;99.90;;;;;;7334845;32;20223;-64
2022/06/24 08:02:15;;;;;;;5.45;1.92;;;17.40;99.90;;;;;;7334512;32;20206;-64
2022/06/24 08:06:17;;;;;;;12.23;3.00;;;17.30;99.90;;;;;;7333200;32;20237;-64
2022/06/24 08:10:20;;;;;;;5.53;2.50;;;17.20;99.90;;;;;;7336996;32;20095;-63
2022/06/24 08:14:22;;;;;;;5.78;2.47;;;17.20;99.90;;;;;;7336556;32;20141;-64
2022/06/24 08:18:23;;;;;;;3.80;2.30;;;17.20;99.90;;;;;;7339587;32;20211;-63
2022/06/24 08:22:25;;;;;;;10.57;3.17;;;17.20;99.90;;;;;;7337977;32;20099;-64
2022/06/24 08:26:27;;;;;;;7.47;3.10;;;17.20;99.90;;;;;;7335136;32;20573;-63
2022/06/24 08:30:29;;;;;;;8.65;4.28;;;17.30;99.90;;;;;;7337974;32;20178;-64
2022/06/24 08:34:31;;;;;;;6.30;4.35;;;17.30;99.90;;;;;;7342762;32;20827;-64
2022/06/24 08:38:33;;;;;;;6.15;4.50;;;17.40;99.90;;;;;;7335527;32;20224;-64
2022/06/24 08:42:37;;;;;;;6.03;3.95;;;17.40;99.90;;;;;;7339697;32;20194;-63
2022/06/24 08:46:41;;;;;;;5.95;4.22;;;17.40;99.90;;;;;;7338388;32;20111;-64
2022/06/24 08:50:47;;;;;;;7.70;5.10;;;17.40;99.90;;;;;;7337691;32;20201;-63
2022/06/24 08:54:49;;;;;;;10.82;5.75;;;17.50;99.90;;;;;;7342791;32;20198;-64
2022/06/24 08:58:53;;;;;;;7.78;6.25;;;17.50;99.90;;;;;;7336705;32;20126;-64
2022/06/24 09:02:56;;;;;;;8.48;6.32;;;17.60;99.90;;;;;;7345117;32;20194;-63
2022/06/24 09:06:58;;;;;;;9.70;7.30;;;17.60;99.90;;;;;;7341610;32;20544;-64
2022/06/24 09:11:07;;;;;;;10.40;6.10;;;17.60;99.90;;;;;;7345074;32;20108;-64
2022/06/24 09:15:11;;;;;;;9.30;6.78;;;17.70;99.90;;;;;;7348924;32;20181;-63
2022/06/24 09:19:17;;;;;;;8.80;6.78;;;17.80;99.90;;;;;;7341133;32;20111;-64
2022/06/24 09:23:19;;;;;;;12.23;8.10;;;17.90;99.90;;;;;;7331212;32;20130;-64
2022/06/24 09:27:21;;;;;;;14.52;8.98;;;18.00;99.90;;;;;;7341704;32;20136;-65
2022/06/24 09:31:27;;;;;;;11.52;9.25;;;18.10;99.90;;;;;;7340971;32;20135;-64
2022/06/24 09:35:34;;;;;;;12.57;9.20;;;18.20;99.90;;;;;;7337822;32;20189;-64
2022/06/24 09:39:36;;;;;;;11.60;9.93;;;18.30;99.90;;;;;;7339653;32;20130;-64
2022/06/24 09:43:38;;;;;;;13.27;8.52;;;18.60;99.90;;;;;;7336413;32;20104;-64
2022/06/24 09:47:39;;;;;;;10.82;8.35;;;18.80;99.90;;;;;;7335072;32;20139;-65
2022/06/24 09:51:46;;;;;;;12.93;9.88;;;18.90;99.90;;;;;;7338596;32;20107;-64
2022/06/24 09:55:47;;;;;;;14.38;11.18;;;18.90;99.90;;;;;;7340204;32;20204;-64
2022/06/24 10:04:17;;;;;;;12.40;8.95;;;19.20;99.90;;;;;;7342568;32;20218;-65
2022/06/24 10:08:23;;;;;;;11.77;9.43;;;19.30;99.90;;;;;;7336731;32;20157;-65
2022/06/24 10:12:26;;;;;;;11.38;9.05;;;19.60;99.90;;;;;;7339547;32;20191;-64
2022/06/24 10:16:28;;;;;;;10.43;9.20;;;19.90;99.90;;;;;;7339068;32;20125;-65
2022/06/24 10:20:30;;;;;;;8.15;6.60;;;20.50;99.90;;;;;;7335755;32;20230;-65
2022/06/24 10:24:41;;;;;;;10.20;7.70;;;20.90;99.90;;;;;;7337929;32;20146;-65
2022/06/24 10:29:17;;;;;;;7.82;6.60;;;21.50;99.90;;;;;;7337001;32;20118;-65
2022/06/24 10:33:21;;;;;;;10.32;6.20;;;22.00;99.90;;;;;;7338970;32;21742;-66
2022/06/24 10:37:24;;;;;;;9.50;5.97;;;22.40;99.90;;;;;;7341043;32;20095;-65
2022/06/24 10:41:41;;;;;;;6.15;5.15;;;23.00;99.90;;;;;;7336285;32;20506;-65
2022/06/24 10:45:42;;;;;;;6.10;5.60;;;23.00;99.90;;;;;;7338725;32;20711;-65
2022/06/24 10:49:50;;;;;;;7.80;4.47;;;22.70;99.90;;;;;;7337757;32;20217;-65
2022/06/24 10:54:02;;;;;;;6.87;4.55;;;23.00;99.90;;;;;;7341621;32;20155;-65
2022/06/24 10:58:12;;;;;;;6.43;5.07;;;23.30;99.90;;;;;;7340492;32;20194;-65
2022/06/24 11:02:18;;;;;;;6.20;5.05;;;23.40;99.90;;;;;;7337807;32;20095;-65
2022/06/24 11:06:20;;;;;;;6.55;3.90;;;23.20;99.90;;;;;;7337434;32;20103;-65
2022/06/24 11:10:23;;;;;;;7.55;2.97;;;23.60;99.90;;;;;;7332954;32;20324;-66
2022/06/24 11:14:25;;;;;;;6.03;3.60;;;23.10;99.90;;;;;;7334589;32;20224;-65
2022/06/24 11:18:32;;;;;;;6.55;3.80;;;22.60;99.90;;;;;;7326270;32;20204;-65
2022/06/24 11:22:47;;;;;;;8.20;4.82;;;22.20;99.90;;;;;;7332352;32;20283;-66
2022/06/24 11:27:04;;;;;;;5.57;4.10;;;22.10;99.90;;;;;;7339534;32;20168;-65
2022/06/24 11:31:29;;;;;;;5.07;3.37;;;22.00;99.90;;;;;;7323521;32;20190;-66
2022/06/24 11:35:31;;;;;;;5.35;3.65;;;21.70;99.90;;;;;;7336611;32;20207;-65
2022/06/24 11:39:33;;;;;;;6.47;3.90;;;21.70;99.90;;;;;;7324019;32;20199;-65
2022/06/24 11:43:35;;;;;;;8.10;4.47;;;21.60;99.90;;;;;;7332895;32;20936;-64
2022/06/24 11:47:37;;;;;;;6.60;4.18;;;21.70;99.90;;;;;;7328534;32;20758;-64
2022/06/24 11:51:43;;;;;;;6.55;4.12;;;21.70;99.90;;;;;;7332220;32;20095;-64
2022/06/24 11:55:51;;;;;;;6.82;4.95;;;21.60;99.90;;;;;;7331886;32;20096;-65
2022/06/24 11:59:58;;;;;;;7.93;5.10;;;21.40;99.90;;;;;;7345282;32;20194;-65
2022/06/24 12:04:02;;;;;;;10.90;6.70;;;21.40;99.90;;;;;;7338501;32;20126;-58
2022/06/24 12:08:05;;;;;;;9.15;6.12;;;21.80;99.90;;;;;;7333734;32;20149;-59
2022/06/24 12:12:12;;;;;;;7.65;4.45;;;21.70;99.90;;;;;;7330981;32;20119;-59
2022/06/24 12:16:14;;;;;;;5.70;5.10;;;21.60;99.90;;;;;;7342004;32;20130;-58
2022/06/24 12:20:25;;;;;;;5.45;4.40;;;21.70;99.90;;;;;;7336277;32;20100;-58
2022/06/24 12:24:26;;;;;;;6.97;4.65;;;22.30;99.90;;;;;;7336757;32;20744;-59
2022/06/24 12:28:28;;;;;;;5.93;5.00;;;22.80;99.90;;;;;;7341814;32;20157;-58
2022/06/24 12:33:07;;;;;;;6.30;5.60;;;23.20;99.90;;;;;;7339615;32;20099;-58
2022/06/24 12:37:11;;;;;;;4.47;4.05;;;23.60;99.90;;;;;;7342470;32;20107;-58
2022/06/24 12:41:18;;;;;;;6.07;4.18;;;24.00;99.90;;;;;;7339153;32;20717;-66
2022/06/24 12:45:23;;;;;;;;;;;24.30;99.90;;;;;;7342455;32;20427;-66
2022/06/24 12:53:52;;;;;;;5.25;4.20;;;24.90;99.90;;;;;;7337166;32;20330;-62
2022/06/24 12:57:54;;;;;;;5.00;4.47;;;24.90;99.90;;;;;;7342880;32;20126;-62
2022/06/24 13:01:56;;;;;;;6.62;4.00;;;25.00;99.90;;;;;;7344629;32;20103;-63
2022/06/24 13:05:58;;;;;;;5.20;4.47;;;24.80;99.90;;;;;;7342181;32;20266;-63
2022/06/24 13:09:59;;;;;;;4.37;3.95;;;24.70;99.90;;;;;;7332416;32;20104;-63
2022/06/24 13:14:02;;;;;;;6.10;3.90;;;24.70;99.90;;;;;;7336215;32;20191;-62
2022/06/24 13:18:04;;;;;;;5.93;3.87;;;24.90;99.90;;;;;;7345269;32;20152;-64
2022/06/24 13:22:06;;;;;;;4.55;3.42;;;24.90;99.90;;;;;;7344895;32;20680;-66
2022/06/24 13:26:08;;;;;;;6.57;3.20;;;25.00;99.90;;;;;;7346088;32;20123;-64
2022/06/24 13:30:11;;;;;;;8.30;7.40;;;25.10;99.90;;;;;;7340467;32;20125;-65
2022/06/24 13:34:13;;;;;;;4.25;1.87;;;25.30;99.90;;;;;;7344817;32;20147;-64
2022/06/24 13:38:15;;;;;;;4.25;1.80;;;25.30;99.90;;;;;;7343756;32;20123;-65
2022/06/24 13:42:16;;;;;;;3.10;1.48;;;25.30;99.90;;;;;;7343930;32;20241;-65
2022/06/24 13:46:18;;;;;;;3.45;1.30;;;25.40;99.90;;;;;;7326670;32;20293;-60
2022/06/24 13:50:20;;;;;;;3.03;1.30;;;25.40;99.90;;;;;;7336440;32;20677;-59
2022/06/24 13:54:22;;;;;;;4.65;1.15;;;25.50;99.90;;;;;;7335740;32;20110;-59
2022/06/24 13:58:24;;;;;;;1.30;1.20;;;25.30;99.90;;;;;;7344241;32;20432;-59
2022/06/24 14:02:25;;;;;;;1.98;1.50;;;25.50;99.90;;;;;;7339777;32;20122;-60
2022/06/24 14:06:30;;;;;;;2.28;1.30;;;25.60;99.90;;;;;;7343341;32;20154;-64
2022/06/24 14:10:31;;;;;;;2.75;1.70;;;25.50;99.90;;;;;;7337349;32;21727;-64
2022/06/24 14:14:33;;;;;;;3.97;2.25;;;25.50;99.90;;;;;;7340386;32;20111;-64
2022/06/24 14:18:35;;;;;;;2.00;1.50;;;25.20;99.90;;;;;;7348292;32;20118;-64
2022/06/24 14:22:38;;;;;;;2.78;1.40;;;24.90;99.90;;;;;;7346620;32;20515;-64
2022/06/24 14:26:39;;;;;;;2.42;1.52;;;24.70;99.90;;;;;;7344835;32;20107;-64
2022/06/24 14:30:41;;;;;;;1.65;1.45;;;24.80;99.90;;;;;;7344131;32;20099;-64
2022/06/24 14:34:43;;;;;;;2.37;1.37;;;24.80;99.90;;;;;;7341902;32;20254;-65
2022/06/24 14:43:05;;;;;;;2.12;1.30;;;24.60;99.90;;;;;;7345513;32;20171;-64
2022/06/24 14:47:07;;;;;;;2.03;1.40;;;24.50;99.90;;;;;;7341065;32;20206;-64
2022/06/24 14:51:09;;;;;;;1.65;1.23;;;24.40;99.90;;;;;;7341138;32;20116;-65
2022/06/24 14:55:11;;;;;;;3.20;1.40;;;24.40;99.90;;;;;;7345241;32;20174;-65
2022/06/24 14:59:13;;;;;;;2.75;1.50;;;24.30;99.90;;;;;;7340622;32;20106;-64
2022/06/24 15:03:14;;;;;;;4.97;1.23;;;24.30;99.90;;;;;;7339724;32;20210;-65
2022/06/24 15:07:16;;;;;;;4.03;1.45;;;24.20;99.90;;;;;;7339787;32;20206;-64
2022/06/24 15:11:19;;;;;;;2.50;1.27;;;24.10;99.90;;;;;;7337863;32;21004;-65
2022/06/24 15:15:21;;;;;;;2.87;1.50;;;24.10;99.90;;;;;;7341258;32;20577;-65
2022/06/24 15:19:23;;;;;;;2.60;1.70;;;24.00;99.90;;;;;;7339889;32;20141;-66
2022/06/24 15:23:24;;;;;;;1.33;1.17;;;23.80;99.90;;;;;;7339269;32;20892;-65
2022/06/24 15:27:26;;;;;;;2.53;1.20;;;23.70;99.90;;;;;;7342047;32;20316;-63
2022/06/24 15:31:28;;;;;;;2.15;1.40;;;23.80;99.90;;;;;;7336781;32;20396;-64
2022/06/24 15:35:30;;;;;;;2.87;1.50;;;23.80;99.90;;;;;;7342060;32;20116;-62
2022/06/24 15:39:32;;;;;;;2.75;1.20;;;23.70;99.90;;;;;;7338449;32;20742;-62
2022/06/24 15:43:33;;;;;;;2.22;1.45;;;23.60;99.90;;;;;;7342199;32;20130;-61
2022/06/24 15:47:35;;;;;;;3.25;1.55;;;23.40;99.90;;;;;;7340886;32;20317;-60
2022/06/24 15:51:37;;;;;;;3.87;1.27;;;23.40;99.90;;;;;;7340449;32;20223;-65
2022/06/24 15:55:39;;;;;;;2.33;1.45;;;23.30;99.90;;;;;;7341897;32;20194;-65
2022/06/24 15:59:40;;;;;;;4.35;1.87;;;23.10;99.90;;;;;;7339414;32;20158;-64
2022/06/24 16:03:42;;;;;;;3.37;1.70;;;23.10;99.90;;;;;;7340919;32;20121;-65
2022/06/24 16:07:44;;;;;;;3.42;1.75;;;22.90;99.90;;;;;;7336388;32;20114;-64
2022/06/24 16:16:06;;;;;;;2.70;1.33;;;22.40;99.90;;;;;;7336076;32;20189;-64
2022/06/24 16:20:08;;;;;;;4.40;1.42;;;21.90;99.90;;;;;;7336873;32;20584;-63
2022/06/24 16:24:12;;;;;;;2.35;1.90;;;21.50;99.90;;;;;;7340889;32;20271;-64
2022/06/24 16:32:34;;;;;;;3.95;2.20;;;20.80;99.90;;;;;;7339943;32;20131;-63
2022/06/24 16:36:36;;;;;;;4.57;2.17;;;20.70;99.90;;;;;;7344772;32;20103;-63
2022/06/24 16:40:38;;;;;;;4.18;2.33;;;20.60;99.90;;;;;;7333719;32;20226;-63
2022/06/24 16:44:39;;;;;;;5.07;2.97;;;20.60;99.90;;;;;;7337996;32;20131;-64
2022/06/24 16:48:42;;;;;;;4.00;3.10;;;20.80;99.90;;;;;;7338067;32;20145;-64
2022/06/24 16:52:43;;;;;;;5.25;3.03;;;21.00;99.90;;;;;;7341388;32;20130;-62
2022/06/24 16:56:45;;;;;;;3.67;3.00;;;21.20;99.90;;;;;;7342328;32;20141;-62
2022/06/24 17:00:48;;;;;;;4.75;3.33;;;21.30;99.90;;;;;;7347289;32;20202;-64
2022/06/24 17:04:49;;;;;;;9.55;3.75;;;21.20;99.90;;;;;;7348884;32;20121;-62
2022/06/24 17:08:51;;;;;;;6.25;4.00;;;21.30;99.90;;;;;;7338032;32;20095;-64
2022/06/24 17:12:56;;;;;;;6.47;3.35;;;21.40;99.90;;;;;;7343909;32;20208;-63
2022/06/24 17:16:58;;;;;;;6.85;3.58;;;21.60;99.90;;;;;;7346137;32;20202;-64
2022/06/24 17:21:00;;;;;;;5.62;2.78;;;21.70;99.90;;;;;;7342652;32;20127;-64
2022/06/24 17:25:03;;;;;;;3.85;2.58;;;21.80;99.90;;;;;;7341239;32;20117;-64
2022/06/24 17:29:05;;;;;;;3.78;2.90;;;21.50;99.90;;;;;;7345600;32;20103;-62
2022/06/24 17:33:07;;;;;;;5.35;2.60;;;21.60;99.90;;;;;;7346717;32;20323;-64
2022/06/24 17:37:08;;;;;;;3.53;2.28;;;21.50;99.90;;;;;;7346630;32;20230;-63
2022/06/24 17:41:11;;;;;;;3.80;1.95;;;21.50;99.90;;;;;;7349449;32;20099;-64
2022/06/24 17:45:13;;;;;;;4.47;2.10;;;21.50;99.90;;;;;;7341974;32;20234;-64
2022/06/24 17:49:14;;;;;;;3.62;1.80;;;21.50;99.90;;;;;;7339572;32;20153;-63
2022/06/24 17:53:16;;;;;;;2.50;1.98;;;21.50;99.90;;;;;;7342203;32;20096;-64
2022/06/24 17:57:18;;;;;;;4.18;1.80;;;21.70;99.90;;;;;;7340776;32;20564;-63
2022/06/24 18:01:19;;;;;;;7.93;2.65;;;21.60;99.90;;;;;;7342619;32;20103;-65
2022/06/24 18:05:21;;;;;;;5.15;1.90;;;21.60;99.90;;;;;;7347515;32;20163;-67
2022/06/24 18:09:23;;;;;;;5.60;1.80;;;21.60;99.90;;;;;;7347094;32;20199;-66
2022/06/24 18:13:25;;;;;;;3.80;2.03;;;21.60;99.90;;;;;;7345285;32;20252;-66
2022/06/24 18:17:26;;;;;;;4.47;1.90;;;21.50;99.90;;;;;;7344567;32;21281;-64
2022/06/24 18:21:28;;;;;;;2.28;1.55;;;21.50;99.90;;;;;;7333430;32;20200;-63
2022/06/24 18:25:30;;;;;;;2.87;1.62;;;21.50;99.90;;;;;;7342037;32;20216;-64
2022/06/24 18:29:32;;;;;;;4.57;1.80;;;21.40;99.90;;;;;;7338546;32;20566;-69
2022/06/24 18:33:33;;;;;;;4.28;1.35;;;21.40;99.90;;;;;;7341207;32;20122;-70
2022/06/24 18:37:35;;;;;;;2.75;1.62;;;21.50;99.90;;;;;;7340226;32;20583;-69
2022/06/24 18:41:37;;;;;;;3.50;1.50;;;21.40;99.90;;;;;;7336502;32;22041;-68
2022/06/24 18:45:39;;;;;;;2.03;1.37;;;21.20;99.90;;;;;;7344008;32;20210;-69
2022/06/24 18:49:40;;;;;;;2.72;1.58;;;21.10;99.90;;;;;;7342197;32;20115;-66
2022/06/24 18:53:42;;;;;;;3.45;2.67;;;21.00;99.90;;;;;;7340390;32;20123;-69
2022/06/24 18:57:45;;;;;;;2.90;1.62;;;20.90;99.90;;;;;;7343265;32;20198;-68
2022/06/24 19:01:47;;;;;;;3.00;1.40;;;20.70;99.90;;;;;;7343381;32;20170;-68
2022/06/24 19:05:49;;;;;;;3.47;1.67;;;20.60;99.90;;;;;;7343239;32;20199;-68
2022/06/24 19:09:53;;;;;;;3.87;2.10;;;20.50;99.90;;;;;;7341234;32;20638;-68
2022/06/24 19:13:55;;;;;;;4.47;2.00;;;20.40;99.90;;;;;;7340105;32;20327;-69
2022/06/24 19:17:57;;;;;;;4.80;2.10;;;20.30;99.90;;;;;;7333701;32;20224;-69
2022/06/24 19:21:58;;;;;;;5.53;2.10;;;20.10;99.90;;;;;;7338467;32;20099;-68
2022/06/24 19:26:00;;;;;;;4.68;2.17;;;20.00;99.90;;;;;;7343679;32;20210;-66
2022/06/24 19:30:02;;;;;;;3.58;2.35;;;19.90;99.90;;;;;;7336206;32;20125;-68
2022/06/24 19:34:05;;;;;;;4.12;2.12;;;19.70;99.90;;;;;;7347702;32;20095;-69
2022/06/24 19:38:07;;;;;;;4.93;1.92;;;19.70;99.90;;;;;;7338977;32;20202;-67
2022/06/24 19:42:09;;;;;;;4.30;2.40;;;19.70;99.90;;;;;;7342815;32;20797;-68
2022/06/24 19:46:10;;;;;;;5.80;2.53;;;19.50;99.90;;;;;;7342316;32;20107;-68
2022/06/24 19:50:12;;;;;;;4.87;2.20;;;19.40;99.90;;;;;;7344227;32;20115;-69
2022/06/24 19:54:14;;;;;;;3.65;2.25;;;19.30;99.90;;;;;;7344520;32;20554;-67
2022/06/24 19:58:16;;;;;;;4.28;1.95;;;19.20;99.90;;;;;;7341415;32;20103;-67
2022/06/24 20:06:42;;;;;;;5.03;2.40;;;19.10;99.90;;;;;;7321634;32;20122;-65
2022/06/24 20:10:46;;;;;;;8.15;3.15;;;18.90;99.90;;;;;;7336133;32;20130;-62
2022/06/24 20:14:47;;;;;;;3.67;2.80;;;18.90;99.90;;;;;;7342767;32;20414;-62
2022/06/24 20:18:49;;;;;;;2.53;2.30;;;18.80;99.90;;;;;;7342327;32;20149;-63
2022/06/24 20:22:51;;;;;;;3.42;2.47;;;18.70;99.90;;;;;;7336440;32;20111;-63
2022/06/24 20:26:53;;;;;;;4.85;2.87;;;18.70;99.90;;;;;;7344087;32;20107;-62
2022/06/24 20:30:54;;;;;;;3.25;2.30;;;18.70;99.90;;;;;;7339517;32;20107;-63
2022/06/24 20:34:56;;;;;;;4.57;2.72;;;18.60;99.90;;;;;;7344174;32;20127;-64
2022/06/24 20:38:58;;;;;;;3.50;2.50;;;18.50;99.90;;;;;;7339882;32;20227;-63
2022/06/24 20:43:00;;;;;;;5.07;2.78;;;18.50;99.90;;;;;;7343439;32;20149;-63
2022/06/24 20:47:01;;;;;;;3.65;2.53;;;18.40;99.90;;;;;;7341747;32;20103;-64
2022/06/24 20:51:03;;;;;;;6.37;3.42;;;18.40;99.90;;;;;;7338897;32;20134;-62
2022/06/24 20:55:06;;;;;;;5.62;3.20;;;18.40;99.90;;;;;;7346964;32;20655;-61
2022/06/24 20:59:08;;;;;;;4.68;3.20;;;18.30;99.90;;;;;;7346067;32;20241;-61
2022/06/24 21:03:11;;;;;;;5.43;3.80;;;18.20;99.90;;;;;;7334984;32;20140;-61
2022/06/24 21:07:12;;;;;;;5.87;3.60;;;18.20;99.90;;;;;;7343565;32;20216;-59
2022/06/24 21:11:14;;;;;;;5.53;3.80;;;18.20;99.90;;;;;;7345227;32;20141;-60
2022/06/24 21:15:16;;;;;;;4.10;3.70;;;18.20;99.90;;;;;;7339927;32;20235;-60
2022/06/24 21:19:18;;;;;;;6.12;3.97;;;18.20;99.90;;;;;;7333731;32;20213;-62
2022/06/24 21:23:20;;;;;;;7.55;4.20;;;18.10;99.90;;;;;;7343736;32;20107;-60
2022/06/24 21:27:22;;;;;;;5.60;3.83;;;18.10;99.90;;;;;;7336400;32;20431;-62
2022/06/24 21:31:24;;;;;;;7.45;4.70;;;18.10;99.90;;;;;;7334285;32;20108;-61
2022/06/24 21:35:25;;;;;;;9.05;4.55;;;18.10;99.90;;;;;;7337946;32;20301;-61